createdAt,value
2022-08-22T00:00:59.072Z,76.74
2022-08-22T00:02:57.071Z,74.31
2022-08-22T00:03:09.333Z,73.71
2022-08-22T00:03:39.909Z,76.65
2022-08-22T00:06:13.367Z,75.38
2022-08-22T00:09:03.620Z,76.45
2022-08-22T00:11:52.127Z,76.56
2022-08-22T00:14:20.024Z,76.32
2022-08-22T00:17:13.318Z,76.41
2022-08-22T00:19:55.515Z,76.21
2022-08-22T00:22:48.350Z,75.28
2022-08-22T00:25:49.177Z,75.89
2022-08-22T00:28:21.274Z,76.14
2022-08-22T00:30:59.256Z,76.20
2022-08-22T00:33:32.916Z,76.17
2022-08-22T00:36:09.572Z,75.97
2022-08-22T00:38:42.424Z,76.99
2022-08-22T00:41:27.424Z,76.96
2022-08-22T00:44:11.193Z,76.11
2022-08-22T00:46:52.847Z,76.92
2022-08-22T00:49:44.107Z,77.00
2022-08-22T00:52:17.920Z,77.15
2022-08-22T00:55:03.067Z,76.89
2022-08-22T00:58:04.427Z,76.51
2022-08-22T01:00:40.727Z,77.39
2022-08-22T01:03:34.904Z,77.01
2022-08-22T01:06:01.252Z,77.31
2022-08-22T01:08:37.755Z,77.22
2022-08-22T01:11:26.643Z,77.34
2022-08-22T01:14:02.388Z,77.15
2022-08-22T01:16:30.171Z,76.52
2022-08-22T01:19:06.052Z,76.85
2022-08-22T01:22:14.619Z,76.88
2022-08-22T01:25:11.677Z,77.39
2022-08-22T01:28:05.278Z,77.11
2022-08-22T01:30:52.941Z,77.45
2022-08-22T01:33:49.327Z,77.12
2022-08-22T01:36:29.388Z,77.28
2022-08-22T01:39:22.037Z,76.91
2022-08-22T01:42:26.207Z,77.18
2022-08-22T01:45:12.208Z,76.97
2022-08-22T01:47:50.004Z,77.43
2022-08-22T01:50:37.553Z,77.48
2022-08-22T01:53:08.207Z,77.31
2022-08-22T01:55:58.413Z,77.16
2022-08-22T01:58:28.389Z,77.61
2022-08-22T02:01:08.492Z,77.87
2022-08-22T02:04:10.201Z,77.16
2022-08-22T02:06:51.572Z,77.61
2022-08-22T02:09:39.340Z,77.55
2022-08-22T02:12:26.429Z,77.83
2022-08-22T02:15:05.362Z,77.61
2022-08-22T02:17:35.596Z,77.96
2022-08-22T02:20:10.442Z,77.50
2022-08-22T02:22:51.974Z,77.72
2022-08-22T02:25:32.344Z,77.13
2022-08-22T02:28:08.487Z,76.33
2022-08-22T02:30:52.478Z,76.10
2022-08-22T02:33:32.564Z,77.06
2022-08-22T02:36:07.504Z,77.09
2022-08-22T02:38:42.592Z,76.96
2022-08-22T02:41:21.069Z,77.22
2022-08-22T02:43:56.404Z,77.03
2022-08-22T02:46:23.038Z,77.33
2022-08-22T02:49:32.185Z,77.13
2022-08-22T02:52:12.586Z,77.61
2022-08-22T02:54:56.756Z,77.13
2022-08-22T02:57:39.611Z,77.19
2022-08-22T03:00:30.749Z,77.54
2022-08-22T03:03:05.735Z,77.65
2022-08-22T03:05:36.106Z,77.36
2022-08-22T03:08:08.084Z,77.18
2022-08-22T03:10:43.575Z,77.87
2022-08-22T03:13:24.224Z,78.37
2022-08-22T03:15:56.405Z,78.35
2022-08-22T03:18:44.744Z,77.90
2022-08-22T03:21:32.580Z,77.83
2022-08-22T03:24:08.391Z,77.62
2022-08-22T03:26:49.262Z,77.75
2022-08-22T03:29:20.848Z,77.42
2022-08-22T03:32:09.736Z,77.02
2022-08-22T03:34:36.778Z,78.05
2022-08-22T03:37:17.330Z,77.68
2022-08-22T03:39:50.843Z,77.07
2022-08-22T03:42:48.572Z,77.56
2022-08-22T03:45:36.826Z,77.80
2022-08-22T03:48:31.079Z,78.52
2022-08-22T03:51:03.729Z,77.22
2022-08-22T03:53:58.401Z,77.27
2022-08-22T03:56:50.588Z,77.10
2022-08-22T03:59:56.296Z,76.67
2022-08-22T04:03:06.897Z,77.26
2022-08-22T04:05:52.813Z,76.87
2022-08-22T04:08:33.094Z,76.84
2022-08-22T04:11:30.645Z,77.25
2022-08-22T04:14:12.445Z,76.91
2022-08-22T04:17:07.102Z,77.44
2022-08-22T04:19:58.071Z,77.49
2022-08-22T04:22:50.924Z,77.61
2022-08-22T04:25:23.749Z,76.99
2022-08-22T04:28:14.862Z,76.85
2022-08-22T04:30:50.244Z,77.17
2022-08-22T04:33:24.540Z,76.72
2022-08-22T04:36:05.164Z,76.12
2022-08-22T04:38:41.025Z,76.70
2022-08-22T04:41:12.176Z,77.44
2022-08-22T04:43:58.887Z,76.35
2022-08-22T04:46:37.306Z,76.44
2022-08-22T04:49:29.216Z,76.19
2022-08-22T04:52:09.166Z,76.30
2022-08-22T04:54:56.352Z,76.37
2022-08-22T04:57:36.899Z,76.36
2022-08-22T05:00:07.584Z,76.37
2022-08-22T05:02:37.659Z,76.54
2022-08-22T05:05:13.619Z,76.47
2022-08-22T05:07:47.230Z,76.51
2022-08-22T05:10:19.489Z,76.83
2022-08-22T05:12:59.983Z,76.75
2022-08-22T05:15:33.552Z,76.45
2022-08-22T05:18:07.333Z,76.45
2022-08-22T05:20:35.279Z,76.59
2022-08-22T05:23:17.671Z,76.73
2022-08-22T05:25:46.873Z,76.79
2022-08-22T05:28:34.382Z,76.66
2022-08-22T05:31:13.930Z,76.57
2022-08-22T05:33:50.493Z,77.15
2022-08-22T05:36:24.137Z,77.13
2022-08-22T05:38:59.081Z,77.41
2022-08-22T05:41:28.885Z,76.60
2022-08-22T05:43:55.928Z,76.27
2022-08-22T05:46:27.131Z,76.92
2022-08-22T05:48:59.849Z,77.80
2022-08-22T05:51:39.543Z,77.91
2022-08-22T05:54:21.536Z,78.27
2022-08-22T05:57:11.287Z,78.18
2022-08-22T05:59:42.594Z,77.95
2022-08-22T06:02:16.596Z,77.87
2022-08-22T06:04:44.019Z,77.54
2022-08-22T06:07:20.502Z,77.34
2022-08-22T06:09:46.991Z,76.98
2022-08-22T06:12:22.278Z,77.08
2022-08-22T06:15:20.918Z,76.90
2022-08-22T06:17:51.033Z,76.62
2022-08-22T06:20:25.230Z,77.01
2022-08-22T06:22:57.724Z,77.13
2022-08-22T06:25:30.037Z,77.16
2022-08-22T06:28:01.003Z,76.85
2022-08-22T06:30:29.767Z,77.21
2022-08-22T06:33:06.321Z,77.58
2022-08-22T06:35:59.097Z,77.35
2022-08-22T06:38:32.383Z,77.15
2022-08-22T06:41:02.965Z,77.22
2022-08-22T06:43:42.467Z,76.95
2022-08-22T06:46:13.103Z,77.15
2022-08-22T06:48:41.272Z,76.79
2022-08-22T06:51:08.788Z,76.78
2022-08-22T06:53:45.960Z,77.15
2022-08-22T06:56:38.945Z,76.72
2022-08-22T06:59:12.189Z,76.39
2022-08-22T07:01:48.108Z,76.55
2022-08-22T07:04:18.584Z,76.91
2022-08-22T07:06:50.120Z,77.37
2022-08-22T07:09:28.123Z,77.48
2022-08-22T07:11:57.630Z,77.12
2022-08-22T07:14:28.502Z,76.42
2022-08-22T07:17:02.455Z,76.94
2022-08-22T07:19:35.881Z,77.26
2022-08-22T07:22:16.068Z,77.36
2022-08-22T07:24:50.942Z,76.94
2022-08-22T07:27:28.886Z,77.48
2022-08-22T07:30:03.987Z,75.39
2022-08-22T07:32:50.343Z,76.20
2022-08-22T07:35:23.373Z,75.81
2022-08-22T07:38:04.535Z,76.69
2022-08-22T07:40:46.516Z,76.66
2022-08-22T07:43:24.959Z,76.81
2022-08-22T07:45:57.542Z,76.91
2022-08-22T07:48:33.136Z,76.99
2022-08-22T07:51:07.881Z,76.86
2022-08-22T07:53:42.592Z,77.47
2022-08-22T07:56:16.604Z,76.53
2022-08-22T07:58:47.852Z,76.02
2022-08-22T08:01:19.809Z,76.88
2022-08-22T08:03:55.079Z,76.86
2022-08-22T08:06:24.302Z,76.09
2022-08-22T08:08:52.962Z,76.54
2022-08-22T08:11:22.686Z,76.89
2022-08-22T08:13:54.760Z,76.15
2022-08-22T08:16:25.188Z,76.59
2022-08-22T08:18:55.175Z,76.08
2022-08-22T08:21:26.328Z,75.31
2022-08-22T08:23:54.035Z,75.39
2022-08-22T08:26:26.946Z,75.38
2022-08-22T08:28:57.198Z,75.72
2022-08-22T08:34:10.141Z,75.01
2022-08-22T08:36:48.197Z,74.21
2022-08-22T08:39:34.929Z,72.60
2022-08-22T08:42:12.089Z,72.76
2022-08-22T08:44:39.545Z,72.98
2022-08-22T08:47:21.075Z,73.00
2022-08-22T08:50:05.831Z,73.34
2022-08-22T08:53:03.643Z,72.85
2022-08-22T08:55:47.637Z,72.07
2022-08-22T08:58:35.882Z,72.31
2022-08-22T09:01:31.017Z,72.25
2022-08-22T09:04:35.809Z,72.54
2022-08-22T09:07:21.332Z,72.58
2022-08-22T09:10:29.385Z,72.99
2022-08-22T09:13:14.944Z,70.05
2022-08-22T09:15:58.564Z,70.19
2022-08-22T09:18:51.072Z,70.36
2022-08-22T09:21:37.618Z,69.94
2022-08-22T09:24:24.449Z,68.39
2022-08-22T09:27:01.252Z,69.15
2022-08-22T09:29:54.515Z,69.01
2022-08-22T09:32:29.520Z,70.18
2022-08-22T09:34:59.546Z,69.56
2022-08-22T09:37:40.220Z,68.12
2022-08-22T09:40:19.594Z,68.70
2022-08-22T09:43:06.223Z,67.99
2022-08-22T09:45:36.159Z,67.25
2022-08-22T09:48:18.809Z,67.18
2022-08-22T09:51:04.636Z,66.05
2022-08-22T09:54:06.493Z,67.92
2022-08-22T09:56:51.233Z,67.76
2022-08-22T09:59:23.416Z,66.12
2022-08-22T10:02:32.389Z,65.12
2022-08-22T10:05:09.029Z,65.31
2022-08-22T10:07:52.770Z,64.54
2022-08-22T10:10:32.608Z,65.77
2022-08-22T10:13:10.517Z,65.79
2022-08-22T10:15:48.476Z,64.82
2022-08-22T10:18:36.837Z,65.28
2022-08-22T10:21:21.935Z,63.85
2022-08-22T10:23:59.197Z,63.79
2022-08-22T10:26:42.977Z,63.36
2022-08-22T10:29:15.551Z,64.68
2022-08-22T10:31:58.901Z,62.86
2022-08-22T10:34:36.218Z,64.66
2022-08-22T10:37:23.905Z,63.35
2022-08-22T10:40:03.005Z,60.95
2022-08-22T10:42:38.853Z,60.02
2022-08-22T10:45:36.930Z,59.60
2022-08-22T10:48:04.525Z,59.32
2022-08-22T10:50:42.929Z,59.57
2022-08-22T10:53:30.697Z,59.53
2022-08-22T10:56:21.817Z,59.62
2022-08-22T10:58:56.102Z,59.85
2022-08-22T11:01:37.823Z,58.28
2022-08-22T11:04:40.859Z,60.70
2022-08-22T11:07:36.366Z,58.57
2022-08-22T11:10:21.258Z,59.19
2022-08-22T11:13:03.475Z,60.66
2022-08-22T11:15:52.933Z,59.38
2022-08-22T11:18:30.458Z,61.21
2022-08-22T11:21:09.388Z,59.03
2022-08-22T11:23:45.683Z,57.77
2022-08-22T11:26:47.314Z,58.87
2022-08-22T11:29:26.386Z,56.37
2022-08-22T11:32:11.481Z,56.55
2022-08-22T11:34:57.157Z,55.77
2022-08-22T11:37:43.233Z,53.89
2022-08-22T11:40:27.339Z,54.64
2022-08-22T11:43:07.743Z,56.78
2022-08-22T11:45:46.747Z,56.61
2022-08-22T11:48:27.641Z,59.78
2022-08-22T11:51:13.123Z,58.67
2022-08-22T11:53:52.176Z,55.90
2022-08-22T11:56:34.395Z,55.35
2022-08-22T11:59:01.939Z,54.64
2022-08-22T12:01:39.600Z,55.08
2022-08-22T12:04:10.432Z,53.42
2022-08-22T12:06:56.818Z,54.76
2022-08-22T12:09:32.068Z,56.71
2022-08-22T12:12:04.934Z,53.95
2022-08-22T12:14:48.331Z,54.66
2022-08-22T12:17:50.823Z,56.08
2022-08-22T12:20:27.154Z,55.01
2022-08-22T12:22:55.525Z,56.12
2022-08-22T12:25:46.785Z,55.64
2022-08-22T12:28:31.287Z,57.22
2022-08-22T12:31:17.738Z,55.35
2022-08-22T12:33:52.414Z,53.24
2022-08-22T12:36:43.258Z,52.10
2022-08-22T12:39:27.344Z,52.35
2022-08-22T12:42:09.672Z,51.87
2022-08-22T12:44:56.297Z,51.96
2022-08-22T12:47:32.280Z,53.60
2022-08-22T12:50:07.546Z,54.53
2022-08-22T12:53:20.311Z,52.37
2022-08-22T12:55:58.041Z,51.68
2022-08-22T12:58:55.540Z,53.44
2022-08-22T13:01:34.138Z,50.50
2022-08-22T13:04:05.422Z,51.15
2022-08-22T13:06:35.821Z,52.41
2022-08-22T13:09:09.867Z,54.46
2022-08-22T13:11:39.902Z,51.28
2022-08-22T13:14:09.741Z,57.06
2022-08-22T13:16:52.858Z,55.59
2022-08-22T13:19:23.901Z,54.02
2022-08-22T13:22:02.342Z,53.31
2022-08-22T13:24:38.564Z,50.81
2022-08-22T13:27:15.089Z,51.26
2022-08-22T13:29:47.046Z,52.75
2022-08-22T13:32:26.368Z,55.19
2022-08-22T13:34:56.963Z,51.06
2022-08-22T13:37:34.550Z,52.46
2022-08-22T13:40:05.998Z,52.06
2022-08-22T13:42:40.062Z,51.73
2022-08-22T13:45:15.546Z,51.18
2022-08-22T13:47:51.758Z,49.59
2022-08-22T13:50:24.203Z,48.75
2022-08-22T13:53:02.303Z,48.46
2022-08-22T13:55:38.277Z,50.59
2022-08-22T13:58:26.848Z,49.34
2022-08-22T14:00:57.814Z,47.61
2022-08-22T14:03:35.037Z,49.79
2022-08-22T14:06:35.321Z,47.31
2022-08-22T14:09:03.429Z,49.94
2022-08-22T14:11:43.718Z,46.81
2022-08-22T14:14:11.018Z,49.42
2022-08-22T14:16:47.663Z,48.13
2022-08-22T14:19:28.373Z,48.01
2022-08-22T14:22:02.723Z,49.51
2022-08-22T14:24:38.878Z,50.05
2022-08-22T14:27:16.988Z,48.58
2022-08-22T14:29:52.451Z,49.01
2022-08-22T14:32:35.561Z,48.12
2022-08-22T14:35:17.037Z,45.75
2022-08-22T14:37:54.338Z,46.56
2022-08-22T14:40:30.050Z,49.06
2022-08-22T14:43:07.393Z,49.20
2022-08-22T14:45:38.997Z,48.04
2022-08-22T14:48:31.655Z,48.87
2022-08-22T14:51:01.045Z,48.72
2022-08-22T14:53:33.662Z,46.19
2022-08-22T14:56:04.018Z,48.28
2022-08-22T14:58:45.427Z,46.50
2022-08-22T15:01:15.841Z,44.30
2022-08-22T15:03:51.182Z,44.47
2022-08-22T15:06:47.587Z,44.98
2022-08-22T15:09:33.977Z,45.40
2022-08-22T15:12:03.802Z,47.03
2022-08-22T15:14:48.953Z,47.50
2022-08-22T15:17:34.747Z,48.33
2022-08-22T15:20:11.742Z,45.14
2022-08-22T15:22:40.910Z,46.04
2022-08-22T15:25:16.571Z,44.98
2022-08-22T15:27:55.780Z,47.16
2022-08-22T15:30:32.978Z,46.69
2022-08-22T15:33:11.397Z,45.41
2022-08-22T15:35:39.530Z,46.02
2022-08-22T15:38:27.620Z,46.17
2022-08-22T15:40:55.831Z,47.13
2022-08-22T15:43:34.884Z,46.72
2022-08-22T15:46:09.964Z,47.33
2022-08-22T15:48:57.612Z,48.16
2022-08-22T15:51:36.852Z,48.00
2022-08-22T15:54:24.220Z,47.43
2022-08-22T15:56:51.906Z,48.21
2022-08-22T15:59:26.365Z,46.85
2022-08-22T16:01:58.845Z,47.32
2022-08-22T16:04:33.963Z,47.63
2022-08-22T16:07:02.596Z,46.21
2022-08-22T16:09:43.534Z,47.29
2022-08-22T16:12:29.547Z,47.82
2022-08-22T16:14:56.997Z,48.52
2022-08-22T16:17:29.540Z,48.70
2022-08-22T16:20:20.029Z,49.48
2022-08-22T16:22:56.501Z,49.52
2022-08-22T16:25:44.963Z,48.00
2022-08-22T16:28:56.404Z,48.94
2022-08-22T16:31:24.810Z,48.56
2022-08-22T16:33:51.403Z,50.00
2022-08-22T16:36:39.649Z,46.93
2022-08-22T16:39:31.362Z,48.59
2022-08-22T16:42:21.695Z,50.73
2022-08-22T16:45:01.820Z,51.68
2022-08-22T16:47:31.208Z,51.53
2022-08-22T16:50:22.409Z,48.02
2022-08-22T16:53:09.128Z,51.22
2022-08-22T16:55:42.903Z,50.85
2022-08-22T16:58:55.865Z,50.83
2022-08-22T17:01:47.837Z,51.88
2022-08-22T17:04:26.949Z,50.85
2022-08-22T17:07:23.577Z,50.13
2022-08-22T17:10:18.885Z,50.06
2022-08-22T17:13:13.042Z,51.38
2022-08-22T17:15:43.594Z,51.10
2022-08-22T17:18:21.300Z,51.89
2022-08-22T17:21:04.511Z,52.34
2022-08-22T17:23:48.730Z,52.84
2022-08-22T17:26:22.365Z,52.78
2022-08-22T17:29:02.348Z,53.80
2022-08-22T17:31:43.152Z,52.04
2022-08-22T17:34:42.580Z,52.06
2022-08-22T17:37:09.278Z,53.92
2022-08-22T17:39:57.098Z,53.25
2022-08-22T17:42:41.033Z,53.61
2022-08-22T17:45:19.531Z,54.45
2022-08-22T17:47:54.900Z,53.98
2022-08-22T17:50:30.994Z,53.85
2022-08-22T17:53:16.458Z,53.71
2022-08-22T17:56:11.248Z,53.89
2022-08-22T17:58:48.887Z,54.02
2022-08-22T18:22:37.982Z,54.32
2022-08-22T18:26:49.554Z,55.01
2022-08-22T18:30:36.699Z,55.30
2022-08-22T18:43:17.901Z,56.95
2022-08-22T18:48:33.975Z,56.28
2022-08-22T18:51:24.638Z,56.91
2022-08-22T18:54:04.559Z,58.66
2022-08-22T18:56:31.025Z,57.48
2022-08-22T18:59:12.816Z,57.85
2022-08-22T19:01:50.842Z,58.49
2022-08-22T19:04:45.767Z,59.07
2022-08-22T19:07:26.161Z,60.37
2022-08-22T19:10:17.994Z,62.12
2022-08-22T19:13:08.039Z,62.50
2022-08-22T19:15:55.597Z,62.05
2022-08-22T19:18:24.086Z,62.30
2022-08-22T19:21:31.656Z,63.11
2022-08-22T19:23:58.412Z,64.18
2022-08-22T19:26:28.218Z,64.17
2022-08-22T19:29:01.742Z,63.71
2022-08-22T19:31:35.269Z,63.61
2022-08-22T19:34:16.180Z,63.49
2022-08-22T19:36:45.609Z,63.73
2022-08-22T19:39:41.056Z,63.17
2022-08-22T19:42:19.932Z,62.59
2022-08-22T19:45:00.803Z,62.69
2022-08-22T19:47:34.713Z,63.70
2022-08-22T19:50:13.870Z,63.12
2022-08-22T19:52:56.672Z,63.45
2022-08-22T19:55:51.409Z,63.49
2022-08-22T19:58:32.530Z,63.82
2022-08-22T20:01:24.297Z,63.61
2022-08-22T20:04:09.145Z,64.59
2022-08-22T20:06:51.933Z,64.78
2022-08-22T20:09:26.501Z,64.64
2022-08-22T20:12:13.347Z,65.23
2022-08-22T20:14:44.738Z,65.79
2022-08-22T20:17:24.270Z,65.75
2022-08-22T20:22:52.951Z,65.61
2022-08-22T20:25:41.584Z,66.77
2022-08-22T20:28:27.392Z,66.26
2022-08-22T20:30:59.274Z,66.80
2022-08-22T20:33:33.489Z,67.36
2022-08-22T20:36:06.124Z,66.90
2022-08-22T20:38:55.440Z,67.48
2022-08-22T20:41:30.487Z,67.22
2022-08-22T20:44:06.534Z,67.25
2022-08-22T20:46:53.623Z,67.17
2022-08-22T20:49:26.836Z,67.32
2022-08-22T20:51:57.907Z,67.38
2022-08-22T20:54:27.393Z,67.06
2022-08-22T20:56:57.576Z,67.81
2022-08-22T20:59:36.166Z,67.78
2022-08-22T21:02:10.487Z,67.75
2022-08-22T21:04:44.361Z,67.81
2022-08-22T21:07:11.049Z,68.09
2022-08-22T21:09:55.999Z,68.88
2022-08-22T21:12:24.037Z,69.31
2022-08-22T21:14:50.583Z,69.16
2022-08-22T21:17:22.992Z,69.05
2022-08-22T21:19:49.620Z,69.43
2022-08-22T21:22:24.726Z,69.53
2022-08-22T21:24:55.420Z,69.35
2022-08-22T21:27:27.590Z,68.68
2022-08-22T21:29:55.367Z,68.98
2022-08-22T21:32:34.318Z,68.08
2022-08-22T21:35:02.074Z,69.36
2022-08-22T21:37:44.856Z,68.62
2022-08-22T21:40:15.355Z,68.88
2022-08-22T21:42:45.204Z,68.65
2022-08-22T21:45:27.892Z,68.75
2022-08-22T21:47:54.998Z,68.82
2022-08-22T21:50:23.230Z,69.29
2022-08-22T21:52:53.833Z,69.81
2022-08-22T21:55:27.486Z,69.19
2022-08-22T21:58:04.696Z,69.71
2022-08-22T22:00:48.583Z,69.64
2022-08-22T22:03:18.080Z,70.01
2022-08-22T22:05:44.715Z,70.36
2022-08-22T22:08:12.131Z,70.64
2022-08-22T22:10:41.711Z,70.79
2022-08-22T22:13:08.948Z,70.85
2022-08-22T22:15:44.016Z,71.15
2022-08-22T22:18:13.699Z,71.21
2022-08-22T22:20:41.167Z,71.17
2022-08-22T22:23:09.298Z,71.21
2022-08-22T22:25:42.236Z,71.22
2022-08-22T22:28:17.068Z,71.66
2022-08-22T22:30:45.183Z,71.41
2022-08-22T22:33:11.968Z,71.33
2022-08-22T22:35:40.150Z,71.75
2022-08-22T22:38:07.658Z,71.69
2022-08-22T22:40:35.105Z,71.20
2022-08-22T22:43:02.059Z,70.84
2022-08-22T22:45:28.505Z,71.17
2022-08-22T22:47:55.058Z,71.15
2022-08-22T22:50:21.654Z,72.00
2022-08-22T22:52:48.131Z,72.23
2022-08-22T22:55:24.252Z,72.32
2022-08-22T22:57:58.439Z,72.74
2022-08-22T23:00:25.782Z,72.46
2022-08-22T23:02:57.160Z,72.47
2022-08-22T23:05:23.632Z,72.27
2022-08-22T23:07:50.247Z,72.31
2022-08-22T23:10:21.373Z,72.50
2022-08-22T23:12:48.420Z,72.25
2022-08-22T23:15:14.874Z,72.84
2022-08-22T23:17:42.234Z,73.39
2022-08-22T23:20:09.031Z,73.18
2022-08-22T23:22:35.500Z,73.07
2022-08-22T23:25:02.258Z,72.76
2022-08-22T23:27:28.772Z,72.57
2022-08-22T23:29:55.233Z,72.97
2022-08-22T23:32:21.641Z,73.42
2022-08-22T23:34:49.920Z,72.93
2022-08-22T23:37:20.139Z,72.53
2022-08-22T23:39:47.087Z,72.42
2022-08-22T23:42:16.532Z,73.08
2022-08-22T23:44:45.157Z,73.67
2022-08-22T23:47:13.258Z,73.17
2022-08-22T23:49:40.695Z,72.87
2022-08-22T23:52:09.279Z,73.17
2022-08-22T23:54:36.015Z,73.44
2022-08-22T23:57:12.141Z,73.79
2022-08-22T23:59:46.217Z,74.04
